sensor_id;sensor_type;location;lat;lon;timestamp;temperature;humidity
47961;DHT22;33721;48.852;9.936;2023-04-25T00:01:38;7.10;99.90
47961;DHT22;33721;48.852;9.936;2023-04-25T00:04:04;7.00;99.90
47961;DHT22;33721;48.852;9.936;2023-04-25T00:06:34;7.00;99.90
47961;DHT22;33721;48.852;9.936;2023-04-25T00:09:04;7.00;99.90
47961;DHT22;33721;48.852;9.936;2023-04-25T00:11:33;7.00;99.90
47961;DHT22;33721;48.852;9.936;2023-04-25T00:13:58;7.00;99.90
47961;DHT22;33721;48.852;9.936;2023-04-25T00:16:27;7.00;99.90
47961;DHT22;33721;48.852;9.936;2023-04-25T00:18:54;7.00;99.90
47961;DHT22;33721;48.852;9.936;2023-04-25T00:21:20;7.10;99.90
47961;DHT22;33721;48.852;9.936;2023-04-25T00:23:46;7.10;99.90
47961;DHT22;33721;48.852;9.936;2023-04-25T00:26:13;7.10;99.90
47961;DHT22;33721;48.852;9.936;2023-04-25T00:28:39;7.10;99.90
47961;DHT22;33721;48.852;9.936;2023-04-25T00:31:05;7.00;99.90
47961;DHT22;33721;48.852;9.936;2023-04-25T00:33:31;6.90;99.90
47961;DHT22;33721;48.852;9.936;2023-04-25T00:35:56;6.80;99.90
47961;DHT22;33721;48.852;9.936;2023-04-25T00:38:22;6.70;99.90
47961;DHT22;33721;48.852;9.936;2023-04-25T00:40:48;6.70;99.90
47961;DHT22;33721;48.852;9.936;2023-04-25T00:43:13;6.70;99.90
47961;DHT22;33721;48.852;9.936;2023-04-25T00:45:40;6.70;99.90
47961;DHT22;33721;48.852;9.936;2023-04-25T00:48:05;6.70;99.90
47961;DHT22;33721;48.852;9.936;2023-04-25T00:50:33;6.80;99.90
47961;DHT22;33721;48.852;9.936;2023-04-25T00:52:59;6.80;99.90
47961;DHT22;33721;48.852;9.936;2023-04-25T00:55:24;6.80;99.90
47961;DHT22;33721;48.852;9.936;2023-04-25T00:57:51;6.90;99.90
47961;DHT22;33721;48.852;9.936;2023-04-25T01:00:17;6.90;99.90
47961;DHT22;33721;48.852;9.936;2023-04-25T01:02:44;6.90;99.90
47961;DHT22;33721;48.852;9.936;2023-04-25T01:05:10;6.90;99.90
47961;DHT22;33721;48.852;9.936;2023-04-25T01:07:37;6.90;99.90
47961;DHT22;33721;48.852;9.936;2023-04-25T01:10:04;6.90;99.90
47961;DHT22;33721;48.852;9.936;2023-04-25T01:12:30;6.90;99.90
47961;DHT22;33721;48.852;9.936;2023-04-25T01:14:56;6.90;99.90
47961;DHT22;33721;48.852;9.936;2023-04-25T01:17:22;6.90;99.90
47961;DHT22;33721;48.852;9.936;2023-04-25T01:19:47;6.90;99.90
47961;DHT22;33721;48.852;9.936;2023-04-25T01:22:14;6.80;99.90
47961;DHT22;33721;48.852;9.936;2023-04-25T01:24:40;6.70;99.90
47961;DHT22;33721;48.852;9.936;2023-04-25T01:27:07;6.70;99.90
47961;DHT22;33721;48.852;9.936;2023-04-25T01:29:33;6.70;99.90
47961;DHT22;33721;48.852;9.936;2023-04-25T01:32:00;6.70;99.90
47961;DHT22;33721;48.852;9.936;2023-04-25T01:34:26;6.70;99.90
47961;DHT22;33721;48.852;9.936;2023-04-25T01:36:53;6.70;99.90
47961;DHT22;33721;48.852;9.936;2023-04-25T01:39:19;6.70;99.90
47961;DHT22;33721;48.852;9.936;2023-04-25T01:41:48;6.70;99.90
47961;DHT22;33721;48.852;9.936;2023-04-25T01:44:14;6.80;99.90
47961;DHT22;33721;48.852;9.936;2023-04-25T01:46:40;6.80;99.90
47961;DHT22;33721;48.852;9.936;2023-04-25T01:49:06;6.90;99.90
47961;DHT22;33721;48.852;9.936;2023-04-25T01:51:32;6.90;99.90
47961;DHT22;33721;48.852;9.936;2023-04-25T01:53:58;6.90;99.90
47961;DHT22;33721;48.852;9.936;2023-04-25T01:56:24;6.90;99.90
47961;DHT22;33721;48.852;9.936;2023-04-25T01:58:51;6.90;99.90
47961;DHT22;33721;48.852;9.936;2023-04-25T02:01:16;6.80;99.90
47961;DHT22;33721;48.852;9.936;2023-04-25T02:03:43;6.90;99.90
47961;DHT22;33721;48.852;9.936;2023-04-25T02:06:08;6.90;99.90
47961;DHT22;33721;48.852;9.936;2023-04-25T02:08:34;6.90;99.90
47961;DHT22;33721;48.852;9.936;2023-04-25T02:11:00;6.90;99.90
47961;DHT22;33721;48.852;9.936;2023-04-25T02:13:26;6.90;99.90
47961;DHT22;33721;48.852;9.936;2023-04-25T02:15:51;6.90;99.90
47961;DHT22;33721;48.852;9.936;2023-04-25T02:18:18;6.90;99.90
47961;DHT22;33721;48.852;9.936;2023-04-25T02:20:45;6.90;99.90
47961;DHT22;33721;48.852;9.936;2023-04-25T02:23:11;7.00;99.90
47961;DHT22;33721;48.852;9.936;2023-04-25T02:25:36;7.00;99.90
47961;DHT22;33721;48.852;9.936;2023-04-25T02:28:02;7.00;99.90
47961;DHT22;33721;48.852;9.936;2023-04-25T02:30:28;6.90;99.90
47961;DHT22;33721;48.852;9.936;2023-04-25T02:32:53;6.90;99.90
47961;DHT22;33721;48.852;9.936;2023-04-25T02:35:19;6.90;99.90
47961;DHT22;33721;48.852;9.936;2023-04-25T02:37:45;6.90;99.90
47961;DHT22;33721;48.852;9.936;2023-04-25T02:40:10;6.90;99.90
47961;DHT22;33721;48.852;9.936;2023-04-25T02:42:36;6.90;99.90
47961;DHT22;33721;48.852;9.936;2023-04-25T02:45:02;6.90;99.90
47961;DHT22;33721;48.852;9.936;2023-04-25T02:47:29;6.90;99.90
47961;DHT22;33721;48.852;9.936;2023-04-25T02:49:54;6.90;99.90
47961;DHT22;33721;48.852;9.936;2023-04-25T02:52:20;6.80;99.90
47961;DHT22;33721;48.852;9.936;2023-04-25T02:54:46;6.80;99.90
47961;DHT22;33721;48.852;9.936;2023-04-25T02:57:12;6.80;99.90
47961;DHT22;33721;48.852;9.936;2023-04-25T02:59:38;6.80;99.90
47961;DHT22;33721;48.852;9.936;2023-04-25T03:02:03;6.80;99.90
47961;DHT22;33721;48.852;9.936;2023-04-25T03:04:29;6.70;99.90
47961;DHT22;33721;48.852;9.936;2023-04-25T03:06:55;6.70;99.90
47961;DHT22;33721;48.852;9.936;2023-04-25T03:09:21;6.50;99.90
47961;DHT22;33721;48.852;9.936;2023-04-25T03:11:46;6.50;99.90
47961;DHT22;33721;48.852;9.936;2023-04-25T03:14:12;6.50;99.90
47961;DHT22;33721;48.852;9.936;2023-04-25T03:16:38;6.50;99.90
47961;DHT22;33721;48.852;9.936;2023-04-25T03:19:04;6.50;99.90
47961;DHT22;33721;48.852;9.936;2023-04-25T03:21:31;6.50;99.90
47961;DHT22;33721;48.852;9.936;2023-04-25T03:23:58;6.50;99.90
47961;DHT22;33721;48.852;9.936;2023-04-25T03:26:24;6.60;99.90
47961;DHT22;33721;48.852;9.936;2023-04-25T03:28:49;6.60;99.90
47961;DHT22;33721;48.852;9.936;2023-04-25T03:31:15;6.60;99.90
47961;DHT22;33721;48.852;9.936;2023-04-25T03:33:41;6.60;99.90
47961;DHT22;33721;48.852;9.936;2023-04-25T03:36:07;6.60;99.90
47961;DHT22;33721;48.852;9.936;2023-04-25T03:38:32;6.50;99.90
47961;DHT22;33721;48.852;9.936;2023-04-25T03:40:58;6.50;99.90
47961;DHT22;33721;48.852;9.936;2023-04-25T03:43:24;6.40;99.90
47961;DHT22;33721;48.852;9.936;2023-04-25T03:45:49;6.30;99.90
47961;DHT22;33721;48.852;9.936;2023-04-25T03:48:15;6.40;99.90
47961;DHT22;33721;48.852;9.936;2023-04-25T03:50:41;6.40;99.90
47961;DHT22;33721;48.852;9.936;2023-04-25T03:53:07;6.50;99.90
47961;DHT22;33721;48.852;9.936;2023-04-25T03:55:32;6.40;99.90
47961;DHT22;33721;48.852;9.936;2023-04-25T03:57:58;6.50;99.90
47961;DHT22;33721;48.852;9.936;2023-04-25T04:00:24;6.50;99.90
47961;DHT22;33721;48.852;9.936;2023-04-25T04:02:50;6.50;99.90
47961;DHT22;33721;48.852;9.936;2023-04-25T04:05:16;6.50;99.90
47961;DHT22;33721;48.852;9.936;2023-04-25T04:07:42;6.50;99.90
47961;DHT22;33721;48.852;9.936;2023-04-25T04:10:11;6.50;99.90
47961;DHT22;33721;48.852;9.936;2023-04-25T04:12:37;6.50;99.90
47961;DHT22;33721;48.852;9.936;2023-04-25T04:15:04;6.50;99.90
47961;DHT22;33721;48.852;9.936;2023-04-25T04:17:31;6.50;99.90
47961;DHT22;33721;48.852;9.936;2023-04-25T04:19:57;6.40;99.90
47961;DHT22;33721;48.852;9.936;2023-04-25T04:22:23;6.10;99.90
47961;DHT22;33721;48.852;9.936;2023-04-25T04:24:49;5.90;99.90
47961;DHT22;33721;48.852;9.936;2023-04-25T04:27:16;5.80;99.90
47961;DHT22;33721;48.852;9.936;2023-04-25T04:29:43;5.90;99.90
47961;DHT22;33721;48.852;9.936;2023-04-25T04:32:08;6.00;99.90
47961;DHT22;33721;48.852;9.936;2023-04-25T04:34:34;6.00;99.90
47961;DHT22;33721;48.852;9.936;2023-04-25T04:37:00;6.10;99.90
47961;DHT22;33721;48.852;9.936;2023-04-25T04:39:26;6.20;99.90
47961;DHT22;33721;48.852;9.936;2023-04-25T04:41:51;6.20;99.90
47961;DHT22;33721;48.852;9.936;2023-04-25T04:44:17;6.30;99.90
47961;DHT22;33721;48.852;9.936;2023-04-25T04:46:43;6.40;99.90
47961;DHT22;33721;48.852;9.936;2023-04-25T04:49:10;6.50;99.90
47961;DHT22;33721;48.852;9.936;2023-04-25T04:51:37;6.50;99.90
47961;DHT22;33721;48.852;9.936;2023-04-25T04:54:03;6.50;99.90
47961;DHT22;33721;48.852;9.936;2023-04-25T04:56:31;6.60;99.90
47961;DHT22;33721;48.852;9.936;2023-04-25T04:58:58;6.60;99.90
47961;DHT22;33721;48.852;9.936;2023-04-25T05:01:24;6.50;99.90
47961;DHT22;33721;48.852;9.936;2023-04-25T05:03:51;6.40;99.90
47961;DHT22;33721;48.852;9.936;2023-04-25T05:06:18;6.40;99.90
47961;DHT22;33721;48.852;9.936;2023-04-25T05:08:44;6.40;99.90
47961;DHT22;33721;48.852;9.936;2023-04-25T05:11:10;6.40;99.90
47961;DHT22;33721;48.852;9.936;2023-04-25T05:13:36;6.40;99.90
47961;DHT22;33721;48.852;9.936;2023-04-25T05:16:02;6.40;99.90
47961;DHT22;33721;48.852;9.936;2023-04-25T05:18:27;6.50;99.90
47961;DHT22;33721;48.852;9.936;2023-04-25T05:20:53;6.50;99.90
47961;DHT22;33721;48.852;9.936;2023-04-25T05:23:19;6.60;99.90
47961;DHT22;33721;48.852;9.936;2023-04-25T05:25:45;6.70;99.90
47961;DHT22;33721;48.852;9.936;2023-04-25T05:28:12;6.70;99.90
47961;DHT22;33721;48.852;9.936;2023-04-25T05:30:38;6.70;99.90
47961;DHT22;33721;48.852;9.936;2023-04-25T05:33:04;6.80;99.90
47961;DHT22;33721;48.852;9.936;2023-04-25T05:35:29;6.70;99.90
47961;DHT22;33721;48.852;9.936;2023-04-25T05:37:55;6.80;99.90
47961;DHT22;33721;48.852;9.936;2023-04-25T05:40:21;6.80;99.90
47961;DHT22;33721;48.852;9.936;2023-04-25T05:42:46;6.90;99.90
47961;DHT22;33721;48.852;9.936;2023-04-25T05:45:12;6.90;99.90
47961;DHT22;33721;48.852;9.936;2023-04-25T05:47:38;6.90;99.90
47961;DHT22;33721;48.852;9.936;2023-04-25T05:50:04;7.00;99.90
47961;DHT22;33721;48.852;9.936;2023-04-25T05:52:30;6.90;99.90
47961;DHT22;33721;48.852;9.936;2023-04-25T05:54:55;6.90;99.90
47961;DHT22;33721;48.852;9.936;2023-04-25T05:57:25;7.00;99.90
47961;DHT22;33721;48.852;9.936;2023-04-25T05:59:51;7.00;99.90
47961;DHT22;33721;48.852;9.936;2023-04-25T06:02:17;7.00;99.90
47961;DHT22;33721;48.852;9.936;2023-04-25T06:04:43;7.00;99.90
47961;DHT22;33721;48.852;9.936;2023-04-25T06:07:09;7.00;99.90
47961;DHT22;33721;48.852;9.936;2023-04-25T06:09:34;6.90;99.90
47961;DHT22;33721;48.852;9.936;2023-04-25T06:12:00;7.00;99.90
47961;DHT22;33721;48.852;9.936;2023-04-25T06:14:27;7.00;99.90
47961;DHT22;33721;48.852;9.936;2023-04-25T06:16:52;7.10;99.90
47961;DHT22;33721;48.852;9.936;2023-04-25T06:19:18;7.10;99.90
47961;DHT22;33721;48.852;9.936;2023-04-25T06:21:44;7.10;99.90
47961;DHT22;33721;48.852;9.936;2023-04-25T06:24:09;7.20;99.90
47961;DHT22;33721;48.852;9.936;2023-04-25T06:26:35;7.30;99.90
47961;DHT22;33721;48.852;9.936;2023-04-25T06:29:01;7.30;99.90
47961;DHT22;33721;48.852;9.936;2023-04-25T06:31:27;7.30;99.90
47961;DHT22;33721;48.852;9.936;2023-04-25T06:33:54;7.30;99.90
47961;DHT22;33721;48.852;9.936;2023-04-25T06:36:20;7.30;99.90
47961;DHT22;33721;48.852;9.936;2023-04-25T06:38:50;7.30;99.90
47961;DHT22;33721;48.852;9.936;2023-04-25T06:41:17;7.40;99.90
47961;DHT22;33721;48.852;9.936;2023-04-25T06:43:43;7.60;99.90
47961;DHT22;33721;48.852;9.936;2023-04-25T06:46:09;7.80;99.90
47961;DHT22;33721;48.852;9.936;2023-04-25T06:48:34;8.00;99.90
47961;DHT22;33721;48.852;9.936;2023-04-25T06:51:00;7.90;99.90
47961;DHT22;33721;48.852;9.936;2023-04-25T06:53:26;8.00;99.90
47961;DHT22;33721;48.852;9.936;2023-04-25T06:55:51;8.00;99.90
47961;DHT22;33721;48.852;9.936;2023-04-25T06:58:17;8.00;99.90
47961;DHT22;33721;48.852;9.936;2023-04-25T07:00:43;7.90;99.90
47961;DHT22;33721;48.852;9.936;2023-04-25T07:03:09;7.80;99.90
47961;DHT22;33721;48.852;9.936;2023-04-25T07:05:34;7.90;99.90
47961;DHT22;33721;48.852;9.936;2023-04-25T07:08:00;8.00;99.90
47961;DHT22;33721;48.852;9.936;2023-04-25T07:10:26;8.10;99.90
47961;DHT22;33721;48.852;9.936;2023-04-25T07:12:52;8.10;99.90
47961;DHT22;33721;48.852;9.936;2023-04-25T07:15:17;8.20;99.90
47961;DHT22;33721;48.852;9.936;2023-04-25T07:17:43;8.10;99.90
47961;DHT22;33721;48.852;9.936;2023-04-25T07:20:09;8.00;99.90
47961;DHT22;33721;48.852;9.936;2023-04-25T07:22:35;8.10;99.90
47961;DHT22;33721;48.852;9.936;2023-04-25T07:25:01;8.10;99.90
47961;DHT22;33721;48.852;9.936;2023-04-25T07:27:27;8.20;99.90
47961;DHT22;33721;48.852;9.936;2023-04-25T07:29:53;8.30;99.90
47961;DHT22;33721;48.852;9.936;2023-04-25T07:32:19;8.30;99.90
47961;DHT22;33721;48.852;9.936;2023-04-25T07:34:45;8.40;99.90
47961;DHT22;33721;48.852;9.936;2023-04-25T07:37:10;8.40;99.90
47961;DHT22;33721;48.852;9.936;2023-04-25T07:39:36;8.40;99.90
47961;DHT22;33721;48.852;9.936;2023-04-25T07:42:02;8.40;99.90
47961;DHT22;33721;48.852;9.936;2023-04-25T07:44:29;8.50;99.90
47961;DHT22;33721;48.852;9.936;2023-04-25T07:46:56;8.60;99.90
47961;DHT22;33721;48.852;9.936;2023-04-25T07:49:21;8.60;99.90
47961;DHT22;33721;48.852;9.936;2023-04-25T07:51:47;8.50;99.90
47961;DHT22;33721;48.852;9.936;2023-04-25T07:54:14;8.60;99.90
47961;DHT22;33721;48.852;9.936;2023-04-25T07:56:40;8.60;99.90
47961;DHT22;33721;48.852;9.936;2023-04-25T07:59:06;8.70;99.90
47961;DHT22;33721;48.852;9.936;2023-04-25T08:01:33;8.80;99.90
47961;DHT22;33721;48.852;9.936;2023-04-25T08:03:59;8.90;99.90
47961;DHT22;33721;48.852;9.936;2023-04-25T08:06:25;9.00;99.90
47961;DHT22;33721;48.852;9.936;2023-04-25T08:08:51;9.10;99.90
47961;DHT22;33721;48.852;9.936;2023-04-25T08:11:16;9.10;99.90
47961;DHT22;33721;48.852;9.936;2023-04-25T08:13:42;9.20;99.90
47961;DHT22;33721;48.852;9.936;2023-04-25T08:16:08;9.30;99.90
47961;DHT22;33721;48.852;9.936;2023-04-25T08:18:33;9.20;99.90
47961;DHT22;33721;48.852;9.936;2023-04-25T08:20:59;9.20;99.90
47961;DHT22;33721;48.852;9.936;2023-04-25T08:23:25;9.30;99.90
47961;DHT22;33721;48.852;9.936;2023-04-25T08:25:50;9.30;99.90
47961;DHT22;33721;48.852;9.936;2023-04-25T08:28:16;9.30;99.90
47961;DHT22;33721;48.852;9.936;2023-04-25T08:30:42;9.30;99.90
47961;DHT22;33721;48.852;9.936;2023-04-25T08:33:07;9.30;99.90
47961;DHT22;33721;48.852;9.936;2023-04-25T08:35:33;9.30;99.90
47961;DHT22;33721;48.852;9.936;2023-04-25T08:37:59;9.30;99.90
47961;DHT22;33721;48.852;9.936;2023-04-25T08:40:27;9.30;99.90
47961;DHT22;33721;48.852;9.936;2023-04-25T08:42:56;9.20;99.90
47961;DHT22;33721;48.852;9.936;2023-04-25T08:45:22;9.30;99.90
47961;DHT22;33721;48.852;9.936;2023-04-25T08:47:51;9.20;99.90
47961;DHT22;33721;48.852;9.936;2023-04-25T08:50:17;9.20;99.90
47961;DHT22;33721;48.852;9.936;2023-04-25T08:52:45;9.20;99.90
47961;DHT22;33721;48.852;9.936;2023-04-25T08:55:15;9.30;99.90
47961;DHT22;33721;48.852;9.936;2023-04-25T08:57:42;9.30;99.90
47961;DHT22;33721;48.852;9.936;2023-04-25T09:00:11;9.20;99.90
47961;DHT22;33721;48.852;9.936;2023-04-25T09:02:39;9.20;99.90
47961;DHT22;33721;48.852;9.936;2023-04-25T09:05:06;9.20;99.90
47961;DHT22;33721;48.852;9.936;2023-04-25T09:07:32;9.30;99.90
47961;DHT22;33721;48.852;9.936;2023-04-25T09:09:58;9.40;99.90
47961;DHT22;33721;48.852;9.936;2023-04-25T09:12:29;9.30;99.90
47961;DHT22;33721;48.852;9.936;2023-04-25T09:15:03;9.30;99.90
47961;DHT22;33721;48.852;9.936;2023-04-25T09:17:29;9.20;99.90
47961;DHT22;33721;48.852;9.936;2023-04-25T09:19:55;9.20;99.90
47961;DHT22;33721;48.852;9.936;2023-04-25T09:22:30;9.10;99.90
47961;DHT22;33721;48.852;9.936;2023-04-25T09:24:56;9.00;99.90
47961;DHT22;33721;48.852;9.936;2023-04-25T09:27:22;9.00;99.90
47961;DHT22;33721;48.852;9.936;2023-04-25T09:29:57;9.10;99.90
47961;DHT22;33721;48.852;9.936;2023-04-25T09:32:25;9.10;99.90
47961;DHT22;33721;48.852;9.936;2023-04-25T09:34:51;9.20;99.90
47961;DHT22;33721;48.852;9.936;2023-04-25T09:37:27;9.30;99.90
47961;DHT22;33721;48.852;9.936;2023-04-25T09:39:58;9.30;99.90
47961;DHT22;33721;48.852;9.936;2023-04-25T09:42:30;9.40;99.90
47961;DHT22;33721;48.852;9.936;2023-04-25T09:44:58;9.30;99.90
47961;DHT22;33721;48.852;9.936;2023-04-25T09:47:25;9.40;99.90
47961;DHT22;33721;48.852;9.936;2023-04-25T09:49:52;9.60;99.90
47961;DHT22;33721;48.852;9.936;2023-04-25T09:52:20;9.80;99.90
47961;DHT22;33721;48.852;9.936;2023-04-25T09:54:47;9.90;99.90
47961;DHT22;33721;48.852;9.936;2023-04-25T09:57:18;10.10;99.90
47961;DHT22;33721;48.852;9.936;2023-04-25T09:59:48;10.20;99.90
47961;DHT22;33721;48.852;9.936;2023-04-25T10:02:16;10.40;99.90
47961;DHT22;33721;48.852;9.936;2023-04-25T10:04:44;10.60;99.90
47961;DHT22;33721;48.852;9.936;2023-04-25T10:07:11;10.70;99.90
47961;DHT22;33721;48.852;9.936;2023-04-25T10:09:39;10.60;99.90
47961;DHT22;33721;48.852;9.936;2023-04-25T10:12:06;10.50;99.90
47961;DHT22;33721;48.852;9.936;2023-04-25T10:14:33;10.50;99.90
47961;DHT22;33721;48.852;9.936;2023-04-25T10:16:59;10.40;99.90
47961;DHT22;33721;48.852;9.936;2023-04-25T10:19:28;10.40;99.90
47961;DHT22;33721;48.852;9.936;2023-04-25T10:24:35;10.60;99.90
47961;DHT22;33721;48.852;9.936;2023-04-25T10:27:02;10.60;99.90
47961;DHT22;33721;48.852;9.936;2023-04-25T10:29:28;10.60;99.90
47961;DHT22;33721;48.852;9.936;2023-04-25T10:31:54;10.50;99.90
47961;DHT22;33721;48.852;9.936;2023-04-25T10:34:24;10.40;99.90
47961;DHT22;33721;48.852;9.936;2023-04-25T10:36:52;10.30;99.90
47961;DHT22;33721;48.852;9.936;2023-04-25T10:39:23;10.10;99.90
47961;DHT22;33721;48.852;9.936;2023-04-25T10:42:01;9.90;99.90
47961;DHT22;33721;48.852;9.936;2023-04-25T10:44:31;9.60;99.90
47961;DHT22;33721;48.852;9.936;2023-04-25T10:46:58;9.50;99.90
47961;DHT22;33721;48.852;9.936;2023-04-25T10:49:38;9.40;99.90
47961;DHT22;33721;48.852;9.936;2023-04-25T10:54:57;9.40;99.90
47961;DHT22;33721;48.852;9.936;2023-04-25T11:00:22;9.50;99.90
47961;DHT22;33721;48.852;9.936;2023-04-25T11:02:58;9.60;99.90
47961;DHT22;33721;48.852;9.936;2023-04-25T11:07:52;9.60;99.90
47961;DHT22;33721;48.852;9.936;2023-04-25T11:10:20;9.70;99.90
47961;DHT22;33721;48.852;9.936;2023-04-25T11:12:46;9.80;99.90
47961;DHT22;33721;48.852;9.936;2023-04-25T11:15:13;9.70;99.90
47961;DHT22;33721;48.852;9.936;2023-04-25T11:17:39;9.80;99.90
47961;DHT22;33721;48.852;9.936;2023-04-25T11:20:07;9.90;99.90
47961;DHT22;33721;48.852;9.936;2023-04-25T11:22:37;9.70;99.90
47961;DHT22;33721;48.852;9.936;2023-04-25T11:25:09;9.60;99.90
47961;DHT22;33721;48.852;9.936;2023-04-25T11:27:55;9.50;99.90
47961;DHT22;33721;48.852;9.936;2023-04-25T11:30:23;8.80;99.90
47961;DHT22;33721;48.852;9.936;2023-04-25T11:32:49;8.40;99.90
47961;DHT22;33721;48.852;9.936;2023-04-25T11:35:16;8.20;99.90
47961;DHT22;33721;48.852;9.936;2023-04-25T11:37:43;8.10;99.90
47961;DHT22;33721;48.852;9.936;2023-04-25T11:40:09;8.00;99.90
47961;DHT22;33721;48.852;9.936;2023-04-25T11:42:39;7.90;99.90
47961;DHT22;33721;48.852;9.936;2023-04-25T11:45:06;7.60;99.90
47961;DHT22;33721;48.852;9.936;2023-04-25T11:47:33;7.30;99.90
47961;DHT22;33721;48.852;9.936;2023-04-25T11:49:59;7.00;99.90
47961;DHT22;33721;48.852;9.936;2023-04-25T11:52:39;6.90;99.90
47961;DHT22;33721;48.852;9.936;2023-04-25T11:55:18;6.90;99.90
47961;DHT22;33721;48.852;9.936;2023-04-25T11:57:46;6.80;99.90
47961;DHT22;33721;48.852;9.936;2023-04-25T12:00:20;6.80;99.90
47961;DHT22;33721;48.852;9.936;2023-04-25T12:02:50;6.80;99.90
47961;DHT22;33721;48.852;9.936;2023-04-25T12:05:16;6.70;99.90
47961;DHT22;33721;48.852;9.936;2023-04-25T12:07:42;6.50;99.90
47961;DHT22;33721;48.852;9.936;2023-04-25T12:10:13;6.40;99.90
47961;DHT22;33721;48.852;9.936;2023-04-25T12:12:43;6.20;99.90
47961;DHT22;33721;48.852;9.936;2023-04-25T12:15:17;6.10;99.90
47961;DHT22;33721;48.852;9.936;2023-04-25T12:17:51;6.20;99.90
47961;DHT22;33721;48.852;9.936;2023-04-25T12:20:23;6.20;99.90
47961;DHT22;33721;48.852;9.936;2023-04-25T12:22:49;6.20;99.90
47961;DHT22;33721;48.852;9.936;2023-04-25T12:25:38;6.30;99.90
47961;DHT22;33721;48.852;9.936;2023-04-25T12:28:24;6.40;99.90
47961;DHT22;33721;48.852;9.936;2023-04-25T12:30:55;6.60;99.90
47961;DHT22;33721;48.852;9.936;2023-04-25T12:33:22;6.60;99.90
47961;DHT22;33721;48.852;9.936;2023-04-25T12:35:48;6.70;99.90
47961;DHT22;33721;48.852;9.936;2023-04-25T12:38:30;6.60;99.90
47961;DHT22;33721;48.852;9.936;2023-04-25T12:40:59;6.50;99.90
47961;DHT22;33721;48.852;9.936;2023-04-25T12:43:26;6.50;99.90
47961;DHT22;33721;48.852;9.936;2023-04-25T12:45:52;6.50;99.90
47961;DHT22;33721;48.852;9.936;2023-04-25T12:48:19;6.50;99.90
47961;DHT22;33721;48.852;9.936;2023-04-25T12:50:45;6.40;99.90
47961;DHT22;33721;48.852;9.936;2023-04-25T12:53:14;6.30;99.90
47961;DHT22;33721;48.852;9.936;2023-04-25T12:55:40;6.30;99.90
47961;DHT22;33721;48.852;9.936;2023-04-25T12:58:06;6.30;99.90
47961;DHT22;33721;48.852;9.936;2023-04-25T13:00:33;6.30;99.90
47961;DHT22;33721;48.852;9.936;2023-04-25T13:02:58;6.40;99.90
47961;DHT22;33721;48.852;9.936;2023-04-25T13:05:25;6.50;99.90
47961;DHT22;33721;48.852;9.936;2023-04-25T13:07:50;6.80;99.90
47961;DHT22;33721;48.852;9.936;2023-04-25T13:10:17;7.00;99.90
47961;DHT22;33721;48.852;9.936;2023-04-25T13:12:43;7.20;99.90
47961;DHT22;33721;48.852;9.936;2023-04-25T13:15:09;7.30;99.90
47961;DHT22;33721;48.852;9.936;2023-04-25T13:17:40;7.30;99.90
47961;DHT22;33721;48.852;9.936;2023-04-25T13:20:06;7.40;99.90
47961;DHT22;33721;48.852;9.936;2023-04-25T13:22:34;7.50;99.90
47961;DHT22;33721;48.852;9.936;2023-04-25T13:25:02;7.60;99.90
47961;DHT22;33721;48.852;9.936;2023-04-25T13:27:28;7.50;99.90
47961;DHT22;33721;48.852;9.936;2023-04-25T13:29:54;7.40;99.90
47961;DHT22;33721;48.852;9.936;2023-04-25T13:32:20;7.50;99.90
47961;DHT22;33721;48.852;9.936;2023-04-25T13:34:45;7.40;99.90
47961;DHT22;33721;48.852;9.936;2023-04-25T13:37:11;7.40;99.90
47961;DHT22;33721;48.852;9.936;2023-04-25T13:39:37;7.30;99.90
47961;DHT22;33721;48.852;9.936;2023-04-25T13:42:02;7.40;99.90
47961;DHT22;33721;48.852;9.936;2023-04-25T13:44:28;7.50;99.90
47961;DHT22;33721;48.852;9.936;2023-04-25T13:46:54;7.50;99.90
47961;DHT22;33721;48.852;9.936;2023-04-25T13:49:19;7.50;99.90
47961;DHT22;33721;48.852;9.936;2023-04-25T13:51:45;7.70;99.90
47961;DHT22;33721;48.852;9.936;2023-04-25T13:54:11;7.70;99.90
47961;DHT22;33721;48.852;9.936;2023-04-25T13:56:37;7.80;99.90
47961;DHT22;33721;48.852;9.936;2023-04-25T13:59:02;8.10;99.90
47961;DHT22;33721;48.852;9.936;2023-04-25T14:01:28;8.10;99.90
47961;DHT22;33721;48.852;9.936;2023-04-25T14:03:56;7.90;99.90
47961;DHT22;33721;48.852;9.936;2023-04-25T14:06:22;7.80;99.90
47961;DHT22;33721;48.852;9.936;2023-04-25T14:08:52;7.70;99.90
47961;DHT22;33721;48.852;9.936;2023-04-25T14:11:17;7.50;99.90
47961;DHT22;33721;48.852;9.936;2023-04-25T14:13:44;7.60;99.90
47961;DHT22;33721;48.852;9.936;2023-04-25T14:16:10;7.70;99.90
47961;DHT22;33721;48.852;9.936;2023-04-25T14:18:36;7.70;99.90
47961;DHT22;33721;48.852;9.936;2023-04-25T14:21:01;7.90;99.90
47961;DHT22;33721;48.852;9.936;2023-04-25T14:23:27;8.00;99.90
47961;DHT22;33721;48.852;9.936;2023-04-25T14:25:52;8.00;99.90
47961;DHT22;33721;48.852;9.936;2023-04-25T14:28:19;8.10;99.90
47961;DHT22;33721;48.852;9.936;2023-04-25T14:30:45;8.10;99.90
47961;DHT22;33721;48.852;9.936;2023-04-25T14:33:11;8.10;99.90
47961;DHT22;33721;48.852;9.936;2023-04-25T14:35:37;7.90;99.90
47961;DHT22;33721;48.852;9.936;2023-04-25T14:38:03;7.70;99.90
47961;DHT22;33721;48.852;9.936;2023-04-25T14:40:29;7.60;99.90
47961;DHT22;33721;48.852;9.936;2023-04-25T14:42:54;7.60;99.90
47961;DHT22;33721;48.852;9.936;2023-04-25T14:45:20;7.50;99.90
47961;DHT22;33721;48.852;9.936;2023-04-25T14:47:46;7.50;99.90
47961;DHT22;33721;48.852;9.936;2023-04-25T14:50:12;7.40;99.90
47961;DHT22;33721;48.852;9.936;2023-04-25T14:52:37;7.40;99.90
47961;DHT22;33721;48.852;9.936;2023-04-25T14:55:03;7.40;99.90
47961;DHT22;33721;48.852;9.936;2023-04-25T14:57:34;7.50;99.90
47961;DHT22;33721;48.852;9.936;2023-04-25T14:59:59;7.70;99.90
47961;DHT22;33721;48.852;9.936;2023-04-25T15:02:26;7.70;99.90
47961;DHT22;33721;48.852;9.936;2023-04-25T15:04:52;7.60;99.90
47961;DHT22;33721;48.852;9.936;2023-04-25T15:07:18;7.60;99.90
47961;DHT22;33721;48.852;9.936;2023-04-25T15:09:44;7.50;99.90
47961;DHT22;33721;48.852;9.936;2023-04-25T15:12:10;7.50;99.90
47961;DHT22;33721;48.852;9.936;2023-04-25T15:14:36;7.40;99.90
47961;DHT22;33721;48.852;9.936;2023-04-25T15:17:01;7.20;99.90
47961;DHT22;33721;48.852;9.936;2023-04-25T15:19:27;7.00;99.90
47961;DHT22;33721;48.852;9.936;2023-04-25T15:21:53;6.90;99.90
47961;DHT22;33721;48.852;9.936;2023-04-25T15:24:19;6.90;99.90
47961;DHT22;33721;48.852;9.936;2023-04-25T15:26:45;6.80;99.90
47961;DHT22;33721;48.852;9.936;2023-04-25T15:29:11;6.70;99.90
47961;DHT22;33721;48.852;9.936;2023-04-25T15:31:37;6.70;99.90
47961;DHT22;33721;48.852;9.936;2023-04-25T15:34:03;6.70;99.90
47961;DHT22;33721;48.852;9.936;2023-04-25T15:36:29;6.80;99.90
47961;DHT22;33721;48.852;9.936;2023-04-25T15:38:56;6.90;99.90
47961;DHT22;33721;48.852;9.936;2023-04-25T15:41:23;6.90;99.90
47961;DHT22;33721;48.852;9.936;2023-04-25T15:43:49;7.00;99.90
47961;DHT22;33721;48.852;9.936;2023-04-25T15:46:15;7.10;99.90
47961;DHT22;33721;48.852;9.936;2023-04-25T15:48:41;7.20;99.90
47961;DHT22;33721;48.852;9.936;2023-04-25T15:51:06;7.20;99.90
47961;DHT22;33721;48.852;9.936;2023-04-25T15:53:32;7.20;99.90